sensor_id;sensor_type;location;lat;lon;timestamp;P1;durP1;ratioP1;P2;durP2;ratioP2
1380;SDS011;684;48.342;10.096;2023-05-07T00:01:35;10.67;;;8.73;;
1380;SDS011;684;48.342;10.096;2023-05-07T00:04:03;14.30;;;7.60;;
1380;SDS011;684;48.342;10.096;2023-05-07T00:06:30;11.03;;;8.00;;
1380;SDS011;684;48.342;10.096;2023-05-07T00:08:58;9.80;;;7.20;;
1380;SDS011;684;48.342;10.096;2023-05-07T00:11:25;9.30;;;7.07;;
1380;SDS011;684;48.342;10.096;2023-05-07T00:13:53;11.70;;;7.70;;
1380;SDS011;684;48.342;10.096;2023-05-07T00:16:20;9.60;;;7.10;;
1380;SDS011;684;48.342;10.096;2023-05-07T00:18:47;13.20;;;7.90;;
1380;SDS011;684;48.342;10.096;2023-05-07T00:21:15;10.70;;;7.30;;
1380;SDS011;684;48.342;10.096;2023-05-07T00:23:42;10.57;;;7.37;;
1380;SDS011;684;48.342;10.096;2023-05-07T00:26:08;10.73;;;7.87;;
1380;SDS011;684;48.342;10.096;2023-05-07T00:28:35;10.80;;;7.63;;
1380;SDS011;684;48.342;10.096;2023-05-07T00:31:02;9.23;;;6.60;;
1380;SDS011;684;48.342;10.096;2023-05-07T00:33:29;10.43;;;6.97;;
1380;SDS011;684;48.342;10.096;2023-05-07T00:35:55;8.50;;;6.80;;
1380;SDS011;684;48.342;10.096;2023-05-07T00:38:23;8.37;;;6.73;;
1380;SDS011;684;48.342;10.096;2023-05-07T00:40:50;11.50;;;6.90;;
1380;SDS011;684;48.342;10.096;2023-05-07T00:43:17;10.23;;;6.80;;
1380;SDS011;684;48.342;10.096;2023-05-07T00:45:43;10.40;;;6.80;;
1380;SDS011;684;48.342;10.096;2023-05-07T00:48:10;9.83;;;7.17;;
1380;SDS011;684;48.342;10.096;2023-05-07T00:50:37;8.67;;;6.70;;
1380;SDS011;684;48.342;10.096;2023-05-07T00:53:04;10.23;;;7.50;;
1380;SDS011;684;48.342;10.096;2023-05-07T00:55:34;9.10;;;7.40;;
1380;SDS011;684;48.342;10.096;2023-05-07T00:58:02;11.53;;;7.20;;
1380;SDS011;684;48.342;10.096;2023-05-07T01:00:29;11.07;;;6.83;;
1380;SDS011;684;48.342;10.096;2023-05-07T01:02:56;8.40;;;6.63;;
1380;SDS011;684;48.342;10.096;2023-05-07T01:05:23;11.57;;;7.50;;
1380;SDS011;684;48.342;10.096;2023-05-07T01:07:50;9.80;;;7.33;;
1380;SDS011;684;48.342;10.096;2023-05-07T01:10:19;10.03;;;7.00;;
1380;SDS011;684;48.342;10.096;2023-05-07T01:12:47;10.73;;;7.33;;
1380;SDS011;684;48.342;10.096;2023-05-07T01:15:15;9.53;;;6.97;;
1380;SDS011;684;48.342;10.096;2023-05-07T01:17:43;10.13;;;7.90;;
1380;SDS011;684;48.342;10.096;2023-05-07T01:20:10;9.20;;;6.63;;
1380;SDS011;684;48.342;10.096;2023-05-07T01:22:40;10.37;;;7.13;;
1380;SDS011;684;48.342;10.096;2023-05-07T01:25:07;16.47;;;7.30;;
1380;SDS011;684;48.342;10.096;2023-05-07T01:27:34;10.40;;;6.97;;
1380;SDS011;684;48.342;10.096;2023-05-07T01:30:02;10.80;;;6.50;;
1380;SDS011;684;48.342;10.096;2023-05-07T01:32:31;8.70;;;6.33;;
1380;SDS011;684;48.342;10.096;2023-05-07T01:35:01;9.17;;;6.60;;
1380;SDS011;684;48.342;10.096;2023-05-07T01:37:31;9.33;;;6.90;;
1380;SDS011;684;48.342;10.096;2023-05-07T01:39:59;10.90;;;6.83;;
1380;SDS011;684;48.342;10.096;2023-05-07T01:42:27;8.00;;;6.20;;
1380;SDS011;684;48.342;10.096;2023-05-07T01:44:55;7.93;;;5.27;;
1380;SDS011;684;48.342;10.096;2023-05-07T01:47:22;8.73;;;6.10;;
1380;SDS011;684;48.342;10.096;2023-05-07T01:49:50;8.93;;;6.13;;
1380;SDS011;684;48.342;10.096;2023-05-07T01:52:16;10.20;;;5.93;;
1380;SDS011;684;48.342;10.096;2023-05-07T01:54:43;12.23;;;6.00;;
1380;SDS011;684;48.342;10.096;2023-05-07T01:57:11;9.67;;;6.67;;
1380;SDS011;684;48.342;10.096;2023-05-07T01:59:38;8.63;;;6.13;;
1380;SDS011;684;48.342;10.096;2023-05-07T02:02:04;9.17;;;5.70;;
1380;SDS011;684;48.342;10.096;2023-05-07T02:04:31;8.63;;;5.30;;
1380;SDS011;684;48.342;10.096;2023-05-07T02:06:58;8.87;;;5.33;;
1380;SDS011;684;48.342;10.096;2023-05-07T02:09:25;7.87;;;5.60;;
1380;SDS011;684;48.342;10.096;2023-05-07T02:11:51;13.80;;;5.73;;
1380;SDS011;684;48.342;10.096;2023-05-07T02:14:19;8.17;;;6.40;;
1380;SDS011;684;48.342;10.096;2023-05-07T02:16:46;9.70;;;5.60;;
1380;SDS011;684;48.342;10.096;2023-05-07T02:19:13;7.77;;;5.73;;
1380;SDS011;684;48.342;10.096;2023-05-07T02:21:39;11.47;;;6.37;;
1380;SDS011;684;48.342;10.096;2023-05-07T02:24:06;8.17;;;5.73;;
1380;SDS011;684;48.342;10.096;2023-05-07T02:26:33;7.03;;;5.13;;
1380;SDS011;684;48.342;10.096;2023-05-07T02:29:00;8.10;;;5.30;;
1380;SDS011;684;48.342;10.096;2023-05-07T02:31:28;10.03;;;6.43;;
1380;SDS011;684;48.342;10.096;2023-05-07T02:33:54;10.90;;;5.83;;
1380;SDS011;684;48.342;10.096;2023-05-07T02:36:21;10.63;;;6.40;;
1380;SDS011;684;48.342;10.096;2023-05-07T02:38:48;9.43;;;5.97;;
1380;SDS011;684;48.342;10.096;2023-05-07T02:41:14;13.57;;;7.93;;
1380;SDS011;684;48.342;10.096;2023-05-07T02:43:41;7.93;;;5.50;;
1380;SDS011;684;48.342;10.096;2023-05-07T02:46:08;10.80;;;6.47;;
1380;SDS011;684;48.342;10.096;2023-05-07T02:48:37;10.07;;;6.40;;
1380;SDS011;684;48.342;10.096;2023-05-07T02:51:03;8.80;;;6.30;;
1380;SDS011;684;48.342;10.096;2023-05-07T02:53:31;11.63;;;6.37;;
1380;SDS011;684;48.342;10.096;2023-05-07T02:55:59;9.50;;;7.27;;
1380;SDS011;684;48.342;10.096;2023-05-07T02:58:27;9.40;;;7.47;;
1380;SDS011;684;48.342;10.096;2023-05-07T03:00:54;10.77;;;8.87;;
1380;SDS011;684;48.342;10.096;2023-05-07T03:03:21;11.30;;;8.67;;
1380;SDS011;684;48.342;10.096;2023-05-07T03:05:49;10.80;;;8.00;;
1380;SDS011;684;48.342;10.096;2023-05-07T03:08:15;9.23;;;7.50;;
1380;SDS011;684;48.342;10.096;2023-05-07T03:10:42;10.70;;;8.00;;
1380;SDS011;684;48.342;10.096;2023-05-07T03:13:09;8.40;;;6.93;;
1380;SDS011;684;48.342;10.096;2023-05-07T03:15:35;12.20;;;6.77;;
1380;SDS011;684;48.342;10.096;2023-05-07T03:18:02;8.17;;;6.57;;
1380;SDS011;684;48.342;10.096;2023-05-07T03:20:29;9.43;;;7.30;;
1380;SDS011;684;48.342;10.096;2023-05-07T03:22:57;10.23;;;6.00;;
1380;SDS011;684;48.342;10.096;2023-05-07T03:25:24;10.20;;;7.27;;
1380;SDS011;684;48.342;10.096;2023-05-07T03:27:51;11.73;;;7.80;;
1380;SDS011;684;48.342;10.096;2023-05-07T03:30:17;13.50;;;6.40;;
1380;SDS011;684;48.342;10.096;2023-05-07T03:32:45;13.30;;;6.73;;
1380;SDS011;684;48.342;10.096;2023-05-07T03:35:11;9.43;;;6.37;;
1380;SDS011;684;48.342;10.096;2023-05-07T03:37:38;10.33;;;7.07;;
1380;SDS011;684;48.342;10.096;2023-05-07T03:40:07;8.60;;;5.80;;
1380;SDS011;684;48.342;10.096;2023-05-07T03:42:35;8.23;;;5.57;;
1380;SDS011;684;48.342;10.096;2023-05-07T03:45:02;8.37;;;5.87;;
1380;SDS011;684;48.342;10.096;2023-05-07T03:47:29;8.60;;;5.93;;
1380;SDS011;684;48.342;10.096;2023-05-07T03:49:56;8.20;;;5.73;;
1380;SDS011;684;48.342;10.096;2023-05-07T03:52:22;12.00;;;7.07;;
1380;SDS011;684;48.342;10.096;2023-05-07T03:54:51;10.13;;;5.90;;
1380;SDS011;684;48.342;10.096;2023-05-07T03:57:19;9.63;;;6.80;;
1380;SDS011;684;48.342;10.096;2023-05-07T03:59:46;11.90;;;6.33;;
1380;SDS011;684;48.342;10.096;2023-05-07T04:02:12;8.63;;;6.00;;
1380;SDS011;684;48.342;10.096;2023-05-07T04:04:39;9.27;;;5.87;;
1380;SDS011;684;48.342;10.096;2023-05-07T04:07:06;9.20;;;6.40;;
1380;SDS011;684;48.342;10.096;2023-05-07T04:09:32;11.43;;;7.30;;
1380;SDS011;684;48.342;10.096;2023-05-07T04:11:59;8.63;;;6.00;;
1380;SDS011;684;48.342;10.096;2023-05-07T04:14:27;10.00;;;6.07;;
1380;SDS011;684;48.342;10.096;2023-05-07T04:16:55;9.93;;;6.30;;
1380;SDS011;684;48.342;10.096;2023-05-07T04:19:22;10.23;;;6.27;;
1380;SDS011;684;48.342;10.096;2023-05-07T04:21:48;7.67;;;5.70;;
1380;SDS011;684;48.342;10.096;2023-05-07T04:24:15;11.53;;;6.57;;
1380;SDS011;684;48.342;10.096;2023-05-07T04:26:42;9.00;;;6.83;;
1380;SDS011;684;48.342;10.096;2023-05-07T04:29:08;11.53;;;6.60;;
1380;SDS011;684;48.342;10.096;2023-05-07T04:31:37;9.10;;;7.10;;
1380;SDS011;684;48.342;10.096;2023-05-07T04:34:04;9.97;;;6.57;;
1380;SDS011;684;48.342;10.096;2023-05-07T04:36:32;10.47;;;6.87;;
1380;SDS011;684;48.342;10.096;2023-05-07T04:38:59;10.20;;;7.30;;
1380;SDS011;684;48.342;10.096;2023-05-07T04:41:25;9.97;;;6.80;;
1380;SDS011;684;48.342;10.096;2023-05-07T04:43:52;9.10;;;6.03;;
1380;SDS011;684;48.342;10.096;2023-05-07T04:46:19;8.70;;;6.10;;
1380;SDS011;684;48.342;10.096;2023-05-07T04:48:47;10.10;;;5.73;;
1380;SDS011;684;48.342;10.096;2023-05-07T04:51:14;7.40;;;5.50;;
1380;SDS011;684;48.342;10.096;2023-05-07T04:53:40;7.83;;;4.90;;
1380;SDS011;684;48.342;10.096;2023-05-07T04:56:08;7.93;;;5.70;;
1380;SDS011;684;48.342;10.096;2023-05-07T04:58:35;8.13;;;5.57;;
1380;SDS011;684;48.342;10.096;2023-05-07T05:01:01;11.77;;;5.93;;
1380;SDS011;684;48.342;10.096;2023-05-07T05:03:28;9.13;;;5.77;;
1380;SDS011;684;48.342;10.096;2023-05-07T05:05:56;7.40;;;5.57;;
1380;SDS011;684;48.342;10.096;2023-05-07T05:08:24;8.33;;;5.10;;
1380;SDS011;684;48.342;10.096;2023-05-07T05:10:51;9.80;;;5.80;;
1380;SDS011;684;48.342;10.096;2023-05-07T05:13:18;9.73;;;5.40;;
1380;SDS011;684;48.342;10.096;2023-05-07T05:15:45;9.67;;;5.30;;
1380;SDS011;684;48.342;10.096;2023-05-07T05:18:12;7.67;;;5.37;;
1380;SDS011;684;48.342;10.096;2023-05-07T05:20:38;10.50;;;5.43;;
1380;SDS011;684;48.342;10.096;2023-05-07T05:23:07;7.47;;;4.97;;
1380;SDS011;684;48.342;10.096;2023-05-07T05:25:34;8.00;;;5.80;;
1380;SDS011;684;48.342;10.096;2023-05-07T05:28:00;8.50;;;4.40;;
1380;SDS011;684;48.342;10.096;2023-05-07T05:30:27;9.13;;;4.60;;
1380;SDS011;684;48.342;10.096;2023-05-07T05:32:54;7.70;;;4.80;;
1380;SDS011;684;48.342;10.096;2023-05-07T05:35:21;8.43;;;4.47;;
1380;SDS011;684;48.342;10.096;2023-05-07T05:37:47;6.60;;;4.57;;
1380;SDS011;684;48.342;10.096;2023-05-07T05:40:15;6.50;;;4.67;;
1380;SDS011;684;48.342;10.096;2023-05-07T05:42:42;6.20;;;3.93;;
1380;SDS011;684;48.342;10.096;2023-05-07T05:45:09;7.70;;;4.37;;
1380;SDS011;684;48.342;10.096;2023-05-07T05:47:36;5.90;;;4.10;;
1380;SDS011;684;48.342;10.096;2023-05-07T05:50:04;6.20;;;3.97;;
1380;SDS011;684;48.342;10.096;2023-05-07T05:52:32;5.83;;;4.17;;
1380;SDS011;684;48.342;10.096;2023-05-07T05:54:58;6.07;;;3.80;;
1380;SDS011;684;48.342;10.096;2023-05-07T05:57:26;7.97;;;4.03;;
1380;SDS011;684;48.342;10.096;2023-05-07T05:59:53;5.03;;;3.17;;
1380;SDS011;684;48.342;10.096;2023-05-07T06:02:20;7.10;;;4.13;;
1380;SDS011;684;48.342;10.096;2023-05-07T06:04:46;6.80;;;4.27;;
1380;SDS011;684;48.342;10.096;2023-05-07T06:07:13;6.77;;;4.27;;
1380;SDS011;684;48.342;10.096;2023-05-07T06:09:40;5.70;;;4.50;;
1380;SDS011;684;48.342;10.096;2023-05-07T06:12:07;6.83;;;4.30;;
1380;SDS011;684;48.342;10.096;2023-05-07T06:14:35;6.10;;;4.17;;
1380;SDS011;684;48.342;10.096;2023-05-07T06:17:01;6.17;;;4.10;;
1380;SDS011;684;48.342;10.096;2023-05-07T06:19:28;6.80;;;4.30;;
1380;SDS011;684;48.342;10.096;2023-05-07T06:21:55;4.70;;;3.40;;
1380;SDS011;684;48.342;10.096;2023-05-07T06:24:22;6.77;;;4.07;;
1380;SDS011;684;48.342;10.096;2023-05-07T06:26:50;7.60;;;3.67;;
1380;SDS011;684;48.342;10.096;2023-05-07T06:29:16;6.43;;;3.47;;
1380;SDS011;684;48.342;10.096;2023-05-07T06:31:44;5.90;;;3.90;;
1380;SDS011;684;48.342;10.096;2023-05-07T06:34:11;5.30;;;4.13;;
1380;SDS011;684;48.342;10.096;2023-05-07T06:36:39;5.30;;;3.57;;
1380;SDS011;684;48.342;10.096;2023-05-07T06:39:06;6.00;;;3.50;;
1380;SDS011;684;48.342;10.096;2023-05-07T06:41:32;5.97;;;4.27;;
1380;SDS011;684;48.342;10.096;2023-05-07T06:43:59;5.23;;;3.47;;
1380;SDS011;684;48.342;10.096;2023-05-07T06:46:27;5.60;;;3.87;;
1380;SDS011;684;48.342;10.096;2023-05-07T06:48:55;5.40;;;3.90;;
1380;SDS011;684;48.342;10.096;2023-05-07T06:51:22;5.03;;;3.90;;
1380;SDS011;684;48.342;10.096;2023-05-07T06:53:49;5.90;;;3.70;;
1380;SDS011;684;48.342;10.096;2023-05-07T06:56:16;6.07;;;4.03;;
1380;SDS011;684;48.342;10.096;2023-05-07T06:58:42;4.83;;;3.50;;
1380;SDS011;684;48.342;10.096;2023-05-07T07:01:09;7.33;;;4.43;;
1380;SDS011;684;48.342;10.096;2023-05-07T07:03:36;5.80;;;4.43;;
1380;SDS011;684;48.342;10.096;2023-05-07T07:06:04;6.73;;;4.10;;
1380;SDS011;684;48.342;10.096;2023-05-07T07:08:31;5.13;;;3.60;;
1380;SDS011;684;48.342;10.096;2023-05-07T07:10:58;6.10;;;3.87;;
1380;SDS011;684;48.342;10.096;2023-05-07T07:13:24;6.00;;;4.60;;
1380;SDS011;684;48.342;10.096;2023-05-07T07:15:51;5.67;;;3.87;;
1380;SDS011;684;48.342;10.096;2023-05-07T07:18:18;5.90;;;4.17;;
1380;SDS011;684;48.342;10.096;2023-05-07T07:20:45;5.93;;;4.20;;
1380;SDS011;684;48.342;10.096;2023-05-07T07:23:13;5.30;;;4.10;;
1380;SDS011;684;48.342;10.096;2023-05-07T07:25:40;4.87;;;3.80;;
1380;SDS011;684;48.342;10.096;2023-05-07T07:28:06;6.10;;;4.30;;
1380;SDS011;684;48.342;10.096;2023-05-07T07:30:33;6.43;;;4.53;;
1380;SDS011;684;48.342;10.096;2023-05-07T07:33:00;7.10;;;4.70;;
1380;SDS011;684;48.342;10.096;2023-05-07T07:35:28;5.90;;;3.90;;
1380;SDS011;684;48.342;10.096;2023-05-07T07:37:54;5.27;;;4.40;;
1380;SDS011;684;48.342;10.096;2023-05-07T07:40:23;8.43;;;4.13;;
1380;SDS011;684;48.342;10.096;2023-05-07T07:42:49;6.20;;;4.10;;
1380;SDS011;684;48.342;10.096;2023-05-07T07:45:16;5.87;;;3.87;;
1380;SDS011;684;48.342;10.096;2023-05-07T07:47:43;5.67;;;4.27;;
1380;SDS011;684;48.342;10.096;2023-05-07T07:50:10;5.90;;;4.40;;
1380;SDS011;684;48.342;10.096;2023-05-07T07:52:37;8.03;;;5.00;;
1380;SDS011;684;48.342;10.096;2023-05-07T07:55:04;5.77;;;4.40;;
1380;SDS011;684;48.342;10.096;2023-05-07T07:57:33;8.40;;;5.03;;
1380;SDS011;684;48.342;10.096;2023-05-07T07:59:59;5.93;;;4.87;;
1380;SDS011;684;48.342;10.096;2023-05-07T08:02:27;6.53;;;4.53;;
1380;SDS011;684;48.342;10.096;2023-05-07T08:04:53;5.87;;;5.17;;
1380;SDS011;684;48.342;10.096;2023-05-07T08:07:20;6.50;;;4.63;;
1380;SDS011;684;48.342;10.096;2023-05-07T08:09:47;5.93;;;4.43;;
1380;SDS011;684;48.342;10.096;2023-05-07T08:12:14;6.80;;;4.97;;
1380;SDS011;684;48.342;10.096;2023-05-07T08:14:43;6.93;;;4.90;;
1380;SDS011;684;48.342;10.096;2023-05-07T08:17:09;8.40;;;5.17;;
1380;SDS011;684;48.342;10.096;2023-05-07T08:19:36;8.10;;;4.70;;
1380;SDS011;684;48.342;10.096;2023-05-07T08:22:03;6.10;;;4.97;;
1380;SDS011;684;48.342;10.096;2023-05-07T08:24:30;6.90;;;4.60;;
1380;SDS011;684;48.342;10.096;2023-05-07T08:26:57;7.70;;;4.43;;
1380;SDS011;684;48.342;10.096;2023-05-07T08:29:24;6.70;;;5.40;;
1380;SDS011;684;48.342;10.096;2023-05-07T08:31:52;6.93;;;5.17;;
1380;SDS011;684;48.342;10.096;2023-05-07T08:34:19;5.90;;;4.57;;
1380;SDS011;684;48.342;10.096;2023-05-07T08:36:48;6.83;;;5.00;;
1380;SDS011;684;48.342;10.096;2023-05-07T08:39:15;7.10;;;5.50;;
1380;SDS011;684;48.342;10.096;2023-05-07T08:41:43;6.33;;;4.97;;
1380;SDS011;684;48.342;10.096;2023-05-07T08:44:12;9.90;;;4.70;;
1380;SDS011;684;48.342;10.096;2023-05-07T08:46:40;6.80;;;5.20;;
1380;SDS011;684;48.342;10.096;2023-05-07T08:49:09;5.67;;;4.30;;
1380;SDS011;684;48.342;10.096;2023-05-07T08:51:36;6.57;;;4.13;;
1380;SDS011;684;48.342;10.096;2023-05-07T08:54:03;8.00;;;4.53;;
1380;SDS011;684;48.342;10.096;2023-05-07T08:56:31;5.67;;;4.30;;
1380;SDS011;684;48.342;10.096;2023-05-07T08:58:58;7.67;;;4.73;;
1380;SDS011;684;48.342;10.096;2023-05-07T09:01:25;6.10;;;4.80;;
1380;SDS011;684;48.342;10.096;2023-05-07T09:03:52;5.87;;;4.17;;
1380;SDS011;684;48.342;10.096;2023-05-07T09:06:20;9.90;;;4.73;;
1380;SDS011;684;48.342;10.096;2023-05-07T09:08:51;5.97;;;4.20;;
1380;SDS011;684;48.342;10.096;2023-05-07T09:11:19;7.43;;;4.10;;
1380;SDS011;684;48.342;10.096;2023-05-07T09:13:47;6.47;;;4.40;;
1380;SDS011;684;48.342;10.096;2023-05-07T09:16:15;5.53;;;3.60;;
1380;SDS011;684;48.342;10.096;2023-05-07T09:18:42;8.53;;;4.40;;
1380;SDS011;684;48.342;10.096;2023-05-07T09:21:10;4.90;;;3.90;;
1380;SDS011;684;48.342;10.096;2023-05-07T09:23:38;5.20;;;3.57;;
1380;SDS011;684;48.342;10.096;2023-05-07T09:26:06;5.70;;;3.80;;
1380;SDS011;684;48.342;10.096;2023-05-07T09:28:37;5.80;;;3.00;;
1380;SDS011;684;48.342;10.096;2023-05-07T09:31:05;5.90;;;3.70;;
1380;SDS011;684;48.342;10.096;2023-05-07T09:33:31;6.30;;;4.00;;
1380;SDS011;684;48.342;10.096;2023-05-07T09:35:58;7.80;;;3.80;;
1380;SDS011;684;48.342;10.096;2023-05-07T09:38:28;5.10;;;3.53;;
1380;SDS011;684;48.342;10.096;2023-05-07T09:41:04;4.80;;;3.30;;
1380;SDS011;684;48.342;10.096;2023-05-07T09:43:32;5.70;;;2.87;;
1380;SDS011;684;48.342;10.096;2023-05-07T09:46:01;8.20;;;4.00;;
1380;SDS011;684;48.342;10.096;2023-05-07T09:48:29;4.80;;;3.30;;
1380;SDS011;684;48.342;10.096;2023-05-07T09:50:57;5.67;;;3.90;;
1380;SDS011;684;48.342;10.096;2023-05-07T09:53:29;8.73;;;4.13;;
1380;SDS011;684;48.342;10.096;2023-05-07T09:55:59;4.87;;;3.07;;
1380;SDS011;684;48.342;10.096;2023-05-07T09:58:28;5.47;;;3.00;;
1380;SDS011;684;48.342;10.096;2023-05-07T10:00:55;5.47;;;2.83;;
1380;SDS011;684;48.342;10.096;2023-05-07T10:03:23;5.57;;;2.27;;
1380;SDS011;684;48.342;10.096;2023-05-07T10:05:53;4.50;;;2.73;;
1380;SDS011;684;48.342;10.096;2023-05-07T10:08:20;5.67;;;3.20;;
1380;SDS011;684;48.342;10.096;2023-05-07T10:10:47;5.23;;;2.50;;
1380;SDS011;684;48.342;10.096;2023-05-07T10:13:15;5.40;;;2.47;;
1380;SDS011;684;48.342;10.096;2023-05-07T10:15:44;6.00;;;2.33;;
1380;SDS011;684;48.342;10.096;2023-05-07T10:18:12;5.10;;;2.50;;
1380;SDS011;684;48.342;10.096;2023-05-07T10:20:39;6.10;;;2.63;;
1380;SDS011;684;48.342;10.096;2023-05-07T10:23:09;5.67;;;2.47;;
1380;SDS011;684;48.342;10.096;2023-05-07T10:25:40;5.83;;;2.40;;
1380;SDS011;684;48.342;10.096;2023-05-07T10:28:08;6.27;;;2.90;;
1380;SDS011;684;48.342;10.096;2023-05-07T10:30:39;5.50;;;2.50;;
1380;SDS011;684;48.342;10.096;2023-05-07T10:33:19;4.73;;;2.47;;
1380;SDS011;684;48.342;10.096;2023-05-07T10:35:49;4.60;;;2.40;;
1380;SDS011;684;48.342;10.096;2023-05-07T10:38:16;4.50;;;2.50;;
1380;SDS011;684;48.342;10.096;2023-05-07T10:40:44;7.20;;;3.13;;
1380;SDS011;684;48.342;10.096;2023-05-07T10:43:10;6.80;;;3.90;;
1380;SDS011;684;48.342;10.096;2023-05-07T10:45:37;6.80;;;3.10;;
1380;SDS011;684;48.342;10.096;2023-05-07T10:48:09;6.00;;;2.90;;
1380;SDS011;684;48.342;10.096;2023-05-07T10:50:38;4.80;;;2.47;;
1380;SDS011;684;48.342;10.096;2023-05-07T10:53:20;5.33;;;2.50;;
1380;SDS011;684;48.342;10.096;2023-05-07T10:55:49;7.03;;;2.87;;
1380;SDS011;684;48.342;10.096;2023-05-07T10:58:23;6.07;;;2.73;;
1380;SDS011;684;48.342;10.096;2023-05-07T11:00:55;5.07;;;3.00;;
1380;SDS011;684;48.342;10.096;2023-05-07T11:03:24;5.27;;;3.03;;
1380;SDS011;684;48.342;10.096;2023-05-07T11:06:08;6.80;;;3.23;;
1380;SDS011;684;48.342;10.096;2023-05-07T11:08:52;6.30;;;3.40;;
1380;SDS011;684;48.342;10.096;2023-05-07T11:11:19;6.03;;;3.27;;
1380;SDS011;684;48.342;10.096;2023-05-07T11:13:47;5.03;;;3.00;;
1380;SDS011;684;48.342;10.096;2023-05-07T11:16:16;5.47;;;3.63;;
1380;SDS011;684;48.342;10.096;2023-05-07T11:18:48;5.43;;;3.10;;
1380;SDS011;684;48.342;10.096;2023-05-07T11:21:33;4.83;;;2.83;;
1380;SDS011;684;48.342;10.096;2023-05-07T11:24:01;6.13;;;3.20;;
1380;SDS011;684;48.342;10.096;2023-05-07T11:26:29;5.17;;;2.83;;
1380;SDS011;684;48.342;10.096;2023-05-07T11:28:57;5.40;;;2.90;;
1380;SDS011;684;48.342;10.096;2023-05-07T11:31:25;4.57;;;2.60;;
1380;SDS011;684;48.342;10.096;2023-05-07T11:33:56;6.53;;;2.83;;
1380;SDS011;684;48.342;10.096;2023-05-07T11:36:23;6.33;;;2.60;;
1380;SDS011;684;48.342;10.096;2023-05-07T11:38:51;6.00;;;3.60;;
1380;SDS011;684;48.342;10.096;2023-05-07T11:41:18;6.30;;;3.07;;
1380;SDS011;684;48.342;10.096;2023-05-07T11:43:55;5.80;;;3.07;;
1380;SDS011;684;48.342;10.096;2023-05-07T11:46:23;5.97;;;3.40;;
1380;SDS011;684;48.342;10.096;2023-05-07T11:48:50;8.60;;;3.80;;
1380;SDS011;684;48.342;10.096;2023-05-07T11:51:21;6.20;;;3.60;;
1380;SDS011;684;48.342;10.096;2023-05-07T11:53:50;6.27;;;3.20;;
1380;SDS011;684;48.342;10.096;2023-05-07T11:56:17;11.57;;;3.80;;
1380;SDS011;684;48.342;10.096;2023-05-07T11:58:46;5.53;;;3.07;;
1380;SDS011;684;48.342;10.096;2023-05-07T12:01:13;4.80;;;3.17;;
1380;SDS011;684;48.342;10.096;2023-05-07T12:03:41;4.13;;;2.40;;
1380;SDS011;684;48.342;10.096;2023-05-07T12:06:10;5.23;;;2.50;;
1380;SDS011;684;48.342;10.096;2023-05-07T12:08:39;6.70;;;2.80;;
1380;SDS011;684;48.342;10.096;2023-05-07T12:11:07;5.20;;;2.30;;
1380;SDS011;684;48.342;10.096;2023-05-07T12:13:36;5.17;;;2.63;;
1380;SDS011;684;48.342;10.096;2023-05-07T12:16:03;6.63;;;3.60;;
1380;SDS011;684;48.342;10.096;2023-05-07T12:18:32;4.60;;;2.43;;
1380;SDS011;684;48.342;10.096;2023-05-07T12:20:59;6.37;;;2.60;;
1380;SDS011;684;48.342;10.096;2023-05-07T12:23:27;5.90;;;2.10;;
1380;SDS011;684;48.342;10.096;2023-05-07T12:25:56;5.30;;;2.77;;
1380;SDS011;684;48.342;10.096;2023-05-07T12:28:22;7.80;;;2.70;;
1380;SDS011;684;48.342;10.096;2023-05-07T12:30:50;5.20;;;3.30;;
1380;SDS011;684;48.342;10.096;2023-05-07T12:33:17;7.00;;;3.07;;
1380;SDS011;684;48.342;10.096;2023-05-07T12:35:47;4.90;;;2.40;;
1380;SDS011;684;48.342;10.096;2023-05-07T12:38:14;10.50;;;3.20;;
1380;SDS011;684;48.342;10.096;2023-05-07T12:40:43;6.13;;;2.40;;
1380;SDS011;684;48.342;10.096;2023-05-07T12:43:16;4.47;;;2.27;;
1380;SDS011;684;48.342;10.096;2023-05-07T12:45:43;6.70;;;2.93;;
1380;SDS011;684;48.342;10.096;2023-05-07T12:48:11;4.80;;;2.50;;
1380;SDS011;684;48.342;10.096;2023-05-07T12:50:38;8.07;;;2.87;;
1380;SDS011;684;48.342;10.096;2023-05-07T12:53:05;6.17;;;2.83;;
1380;SDS011;684;48.342;10.096;2023-05-07T12:55:34;5.37;;;2.30;;
1380;SDS011;684;48.342;10.096;2023-05-07T12:58:07;5.27;;;2.47;;
1380;SDS011;684;48.342;10.096;2023-05-07T13:00:36;5.23;;;2.67;;
1380;SDS011;684;48.342;10.096;2023-05-07T13:03:04;4.87;;;2.30;;
1380;SDS011;684;48.342;10.096;2023-05-07T13:05:31;8.23;;;2.70;;
1380;SDS011;684;48.342;10.096;2023-05-07T13:07:58;8.30;;;3.00;;
1380;SDS011;684;48.342;10.096;2023-05-07T13:10:25;5.13;;;2.47;;
1380;SDS011;684;48.342;10.096;2023-05-07T13:12:53;5.43;;;2.30;;
1380;SDS011;684;48.342;10.096;2023-05-07T13:15:22;5.20;;;1.93;;
1380;SDS011;684;48.342;10.096;2023-05-07T13:17:50;7.00;;;2.50;;
1380;SDS011;684;48.342;10.096;2023-05-07T13:20:17;4.37;;;2.10;;
1380;SDS011;684;48.342;10.096;2023-05-07T13:22:44;5.10;;;2.10;;
1380;SDS011;684;48.342;10.096;2023-05-07T13:25:10;4.20;;;2.10;;
1380;SDS011;684;48.342;10.096;2023-05-07T13:27:37;5.47;;;2.60;;
1380;SDS011;684;48.342;10.096;2023-05-07T13:30:05;4.60;;;2.10;;
1380;SDS011;684;48.342;10.096;2023-05-07T13:32:32;5.50;;;2.50;;
1380;SDS011;684;48.342;10.096;2023-05-07T13:35:00;5.80;;;2.20;;
1380;SDS011;684;48.342;10.096;2023-05-07T13:37:27;5.90;;;2.23;;
1380;SDS011;684;48.342;10.096;2023-05-07T13:39:54;6.57;;;2.07;;
1380;SDS011;684;48.342;10.096;2023-05-07T13:42:20;4.87;;;2.30;;
1380;SDS011;684;48.342;10.096;2023-05-07T13:44:47;7.67;;;2.40;;
1380;SDS011;684;48.342;10.096;2023-05-07T13:47:14;4.90;;;2.40;;
1380;SDS011;684;48.342;10.096;2023-05-07T13:49:41;5.73;;;2.10;;
1380;SDS011;684;48.342;10.096;2023-05-07T13:52:09;5.33;;;1.90;;
1380;SDS011;684;48.342;10.096;2023-05-07T13:54:36;5.23;;;2.33;;
1380;SDS011;684;48.342;10.096;2023-05-07T13:57:02;5.23;;;2.30;;
1380;SDS011;684;48.342;10.096;2023-05-07T13:59:29;5.17;;;2.30;;
1380;SDS011;684;48.342;10.096;2023-05-07T14:01:56;5.97;;;2.27;;
1380;SDS011;684;48.342;10.096;2023-05-07T14:04:23;5.60;;;2.07;;
1380;SDS011;684;48.342;10.096;2023-05-07T14:06:49;5.43;;;1.93;;
1380;SDS011;684;48.342;10.096;2023-05-07T14:09:18;4.23;;;1.87;;
1380;SDS011;684;48.342;10.096;2023-05-07T14:11:44;5.30;;;2.17;;
1380;SDS011;684;48.342;10.096;2023-05-07T14:14:12;4.07;;;1.73;;
1380;SDS011;684;48.342;10.096;2023-05-07T14:16:39;5.27;;;2.07;;
1380;SDS011;684;48.342;10.096;2023-05-07T14:19:05;5.03;;;1.90;;
1380;SDS011;684;48.342;10.096;2023-05-07T14:21:32;5.20;;;2.20;;
1380;SDS011;684;48.342;10.096;2023-05-07T14:23:59;5.50;;;2.43;;
1380;SDS011;684;48.342;10.096;2023-05-07T14:26:27;6.40;;;2.30;;
1380;SDS011;684;48.342;10.096;2023-05-07T14:28:54;4.23;;;2.00;;
1380;SDS011;684;48.342;10.096;2023-05-07T14:31:23;5.10;;;2.10;;
1380;SDS011;684;48.342;10.096;2023-05-07T14:33:50;5.73;;;2.00;;
1380;SDS011;684;48.342;10.096;2023-05-07T14:36:17;6.37;;;2.30;;
1380;SDS011;684;48.342;10.096;2023-05-07T14:38:45;4.93;;;2.00;;
1380;SDS011;684;48.342;10.096;2023-05-07T14:41:11;4.43;;;2.10;;
1380;SDS011;684;48.342;10.096;2023-05-07T14:43:40;5.43;;;1.80;;
1380;SDS011;684;48.342;10.096;2023-05-07T14:46:07;5.10;;;1.70;;
1380;SDS011;684;48.342;10.096;2023-05-07T14:48:34;6.13;;;1.97;;
1380;SDS011;684;48.342;10.096;2023-05-07T14:51:00;4.90;;;2.27;;
1380;SDS011;684;48.342;10.096;2023-05-07T14:53:27;6.17;;;2.47;;
1380;SDS011;684;48.342;10.096;2023-05-07T14:55:54;5.50;;;2.20;;
1380;SDS011;684;48.342;10.096;2023-05-07T14:58:21;7.93;;;2.53;;
1380;SDS011;684;48.342;10.096;2023-05-07T15:00:49;5.60;;;2.40;;
1380;SDS011;684;48.342;10.096;2023-05-07T15:03:15;4.77;;;2.10;;
1380;SDS011;684;48.342;10.096;2023-05-07T15:05:42;6.17;;;2.13;;
1380;SDS011;684;48.342;10.096;2023-05-07T15:08:09;4.80;;;2.37;;
1380;SDS011;684;48.342;10.096;2023-05-07T15:10:36;5.50;;;2.33;;
1380;SDS011;684;48.342;10.096;2023-05-07T15:13:06;5.67;;;2.10;;
1380;SDS011;684;48.342;10.096;2023-05-07T15:15:33;6.30;;;2.70;;